Terminal Aerodrome Forecast
Issued by NWS

Home | Current Version | Previous Version | Graphics & Text | Print | Product List | Glossary On
Versions: 1 2 3 4 5 6 7 8 9 10 11 12 13 14 15 16 17 18 19 20 21 22 23 24 25 26 27 28 29 30 31 32 33 34 35
000
FTUS43 KBIS 231726
TAFMOT
TAF
KMOT 231726Z 2318/2418 10016G24KT P6SM OVC012
     FM232200 10015G23KT P6SM OVC020
     FM240700 08013KT P6SM VCSH OVC008
     FM241100 05010KT P6SM -SN OVC008
     FM241600 03011KT 3SM -RASN OVC008=

USA.gov is the U.S. government's official web portal to all federal, state and local government web resources and services.